createdAt,value
2022-08-14T00:02:27.197Z,21.01
2022-08-14T00:04:56.329Z,20.98
2022-08-14T00:07:24.026Z,20.98
2022-08-14T00:10:01.374Z,21.03
2022-08-14T00:12:53.368Z,21.03
2022-08-14T00:15:43.845Z,21.00
2022-08-14T00:18:30.419Z,20.96
2022-08-14T00:21:11.371Z,20.86
2022-08-14T00:23:40.471Z,20.84
2022-08-14T00:26:21.950Z,20.87
2022-08-14T00:28:53.096Z,20.80
2022-08-14T00:31:35.358Z,20.79
2022-08-14T00:34:35.496Z,20.78
2022-08-14T00:36:56.059Z,20.69
2022-08-14T00:39:26.742Z,20.64
2022-08-14T00:41:53.988Z,20.63
2022-08-14T00:44:31.925Z,20.64
2022-08-14T00:47:03.410Z,20.62
2022-08-14T00:49:38.111Z,20.57
2022-08-14T00:52:18.054Z,20.53
2022-08-14T00:54:58.127Z,20.48
2022-08-14T00:57:34.809Z,20.47
2022-08-14T01:00:34.301Z,20.45
2022-08-14T01:03:04.089Z,20.42
2022-08-14T01:05:50.965Z,20.35
2022-08-14T01:08:51.135Z,20.32
2022-08-14T01:11:19.115Z,20.31
2022-08-14T01:13:56.244Z,20.26
2022-08-14T01:16:31.011Z,20.17
2022-08-14T01:19:19.791Z,20.15
2022-08-14T01:21:53.031Z,20.11
2022-08-14T01:24:30.578Z,20.11
2022-08-14T01:27:05.318Z,20.09
2022-08-14T01:29:59.094Z,20.08
2022-08-14T01:32:25.198Z,20.04
2022-08-14T01:35:20.850Z,19.96
2022-08-14T01:37:46.811Z,20.01
2022-08-14T01:40:37.014Z,20.02
2022-08-14T01:43:15.634Z,20.02
2022-08-14T01:45:48.909Z,19.99
2022-08-14T01:48:20.930Z,19.96
2022-08-14T01:50:48.380Z,19.98
2022-08-14T01:53:17.722Z,19.94
2022-08-14T01:55:45.026Z,19.88
2022-08-14T01:58:18.728Z,19.81
2022-08-14T02:00:55.508Z,19.80
2022-08-14T02:03:31.120Z,19.78
2022-08-14T02:06:03.860Z,19.63
2022-08-14T02:08:53.168Z,19.67
2022-08-14T02:11:25.839Z,19.69
2022-08-14T02:14:07.486Z,19.61
2022-08-14T02:16:54.233Z,19.51
2022-08-14T02:19:27.253Z,19.50
2022-08-14T02:22:02.821Z,19.50
2022-08-14T02:24:39.573Z,19.50
2022-08-14T02:28:23.039Z,19.49
2022-08-14T02:30:01.189Z,19.56
2022-08-14T02:32:37.194Z,19.61
2022-08-14T02:35:18.415Z,19.58
2022-08-14T02:37:49.566Z,19.49
2022-08-14T02:40:32.388Z,19.39
2022-08-14T02:43:03.730Z,19.34
2022-08-14T02:45:37.845Z,19.29
2022-08-14T02:48:10.420Z,19.29
2022-08-14T02:50:55.008Z,19.34
2022-08-14T02:53:22.437Z,19.35
2022-08-14T02:55:49.869Z,19.34
2022-08-14T02:58:30.644Z,19.33
2022-08-14T03:01:01.146Z,19.32
2022-08-14T03:03:30.111Z,19.32
2022-08-14T03:06:00.465Z,19.27
2022-08-14T03:08:33.200Z,19.23
2022-08-14T03:11:07.656Z,19.23
2022-08-14T03:13:47.416Z,19.17
2022-08-14T03:16:26.848Z,19.10
2022-08-14T03:19:00.534Z,18.99
2022-08-14T03:21:32.850Z,18.94
2022-08-14T03:24:16.420Z,18.98
2022-08-14T03:26:57.384Z,18.96
2022-08-14T03:29:27.614Z,18.90
2022-08-14T03:31:56.897Z,18.84
2022-08-14T03:34:52.616Z,18.82
2022-08-14T03:37:38.259Z,18.79
2022-08-14T03:40:01.910Z,18.76
2022-08-14T03:42:31.118Z,18.76
2022-08-14T03:45:18.801Z,18.73
2022-08-14T03:47:58.763Z,18.71
2022-08-14T03:50:31.441Z,18.68
2022-08-14T03:53:02.205Z,18.66
2022-08-14T03:55:31.634Z,18.61
2022-08-14T03:58:00.382Z,18.54
2022-08-14T04:00:44.314Z,18.45
2022-08-14T04:03:23.610Z,18.44
2022-08-14T04:05:53.126Z,18.49
2022-08-14T04:08:29.142Z,18.52
2022-08-14T04:11:01.547Z,18.59
2022-08-14T04:13:34.010Z,18.57
2022-08-14T04:16:12.740Z,18.52
2022-08-14T04:18:50.838Z,18.48
2022-08-14T04:21:18.926Z,18.46
2022-08-14T04:23:49.041Z,18.42
2022-08-14T04:26:42.863Z,18.39
2022-08-14T04:29:15.337Z,18.40
2022-08-14T04:32:58.359Z,18.39
2022-08-14T04:34:33.793Z,18.43
2022-08-14T04:37:24.854Z,18.43
2022-08-14T04:40:15.193Z,18.37
2022-08-14T04:43:02.394Z,18.35
2022-08-14T04:45:40.514Z,18.33
2022-08-14T04:48:39.434Z,18.39
2022-08-14T04:51:09.057Z,18.36
2022-08-14T04:53:43.745Z,18.36
2022-08-14T04:56:30.545Z,18.45
2022-08-14T04:59:09.618Z,18.53
2022-08-14T05:01:47.831Z,18.56
2022-08-14T05:04:20.808Z,18.57
2022-08-14T05:06:53.468Z,18.59
2022-08-14T05:09:24.206Z,18.59
2022-08-14T05:11:52.976Z,18.67
2022-08-14T05:14:46.595Z,18.70
2022-08-14T05:17:12.057Z,18.71
2022-08-14T05:19:45.025Z,18.79
2022-08-14T05:22:27.793Z,18.88
2022-08-14T05:24:55.069Z,18.90
2022-08-14T05:27:23.972Z,18.96
2022-08-14T05:29:55.202Z,19.04
2022-08-14T05:32:26.884Z,19.11
2022-08-14T05:34:58.103Z,19.12
2022-08-14T05:37:29.584Z,19.20
2022-08-14T05:40:00.523Z,19.21
2022-08-14T05:42:31.864Z,19.26
2022-08-14T05:45:00.134Z,19.33
2022-08-14T05:47:33.754Z,19.39
2022-08-14T05:50:17.648Z,19.50
2022-08-14T05:52:50.799Z,19.56
2022-08-14T05:55:22.748Z,19.67
2022-08-14T05:58:07.199Z,19.80
2022-08-14T06:00:44.429Z,19.91
2022-08-14T06:03:17.293Z,20.01
2022-08-14T06:05:47.771Z,20.05
2022-08-14T06:08:36.455Z,20.06
2022-08-14T06:11:10.388Z,20.14
2022-08-14T06:13:45.026Z,20.19
2022-08-14T06:16:17.716Z,20.29
2022-08-14T06:18:52.620Z,20.40
2022-08-14T06:21:22.998Z,20.53
2022-08-14T06:23:51.607Z,20.56
2022-08-14T06:26:20.823Z,20.53
2022-08-14T06:28:51.840Z,20.59
2022-08-14T06:31:21.226Z,20.61
2022-08-14T06:35:02.762Z,20.68
2022-08-14T06:36:39.542Z,20.80
2022-08-14T06:39:10.319Z,20.93
2022-08-14T06:41:57.894Z,21.10
2022-08-14T06:44:32.596Z,21.24
2022-08-14T06:47:02.792Z,21.36
2022-08-14T06:49:31.047Z,21.49
2022-08-14T06:52:15.262Z,21.56
2022-08-14T06:54:45.286Z,21.71
2022-08-14T06:57:13.858Z,21.79
2022-08-14T06:59:42.040Z,21.96
2022-08-14T07:02:29.106Z,21.98
2022-08-14T07:05:16.993Z,22.03
2022-08-14T07:07:51.061Z,22.15
2022-08-14T07:10:18.664Z,22.25
2022-08-14T07:13:01.254Z,22.28
2022-08-14T07:15:29.837Z,22.38
2022-08-14T07:18:01.400Z,22.48
2022-08-14T07:20:30.840Z,22.56
2022-08-14T07:23:09.185Z,22.65
2022-08-14T07:25:43.781Z,22.77
2022-08-14T07:28:26.482Z,22.90
2022-08-14T07:31:04.756Z,23.10
2022-08-14T07:33:50.181Z,23.31
2022-08-14T07:36:27.514Z,23.29
2022-08-14T07:39:02.963Z,23.38
2022-08-14T07:41:42.503Z,23.30
2022-08-14T07:44:32.437Z,23.14
2022-08-14T07:46:58.940Z,23.36
2022-08-14T07:49:27.367Z,23.31
2022-08-14T07:51:56.718Z,23.61
2022-08-14T07:54:30.369Z,23.71
2022-08-14T07:57:00.614Z,23.76
2022-08-14T07:59:41.524Z,23.76
2022-08-14T08:02:17.326Z,23.61
2022-08-14T08:04:54.390Z,23.66
2022-08-14T08:07:30.335Z,23.74
2022-08-14T08:10:00.855Z,23.72
2022-08-14T08:12:32.408Z,23.79
2022-08-14T08:15:02.724Z,23.97
2022-08-14T08:17:38.608Z,24.17
2022-08-14T08:20:11.992Z,24.36
2022-08-14T08:22:43.406Z,24.42
2022-08-14T08:25:18.090Z,24.39
2022-08-14T08:28:31.396Z,24.28
2022-08-14T08:31:06.329Z,24.12
2022-08-14T08:33:37.677Z,24.33
2022-08-14T08:36:12.933Z,24.58
2022-08-14T08:39:17.531Z,24.66
2022-08-14T08:41:55.688Z,24.75
2022-08-14T08:44:32.992Z,24.94
2022-08-14T08:47:07.765Z,25.12
2022-08-14T08:49:48.792Z,24.59
2022-08-14T08:52:31.892Z,24.46
2022-08-14T08:55:04.359Z,24.89
2022-08-14T08:57:37.616Z,25.11
2022-08-14T09:00:25.493Z,25.19
2022-08-14T09:03:18.078Z,25.20
2022-08-14T09:06:01.462Z,25.35
2022-08-14T09:08:37.028Z,25.42
2022-08-14T09:11:19.325Z,25.50
2022-08-14T09:13:52.141Z,25.49
2022-08-14T09:16:24.886Z,25.57
2022-08-14T09:18:53.974Z,25.66
2022-08-14T09:21:23.905Z,25.74
2022-08-14T09:24:26.209Z,25.56
2022-08-14T09:26:49.135Z,26.15
2022-08-14T09:29:20.100Z,26.35
2022-08-14T09:32:03.527Z,26.14
2022-08-14T09:35:21.208Z,26.70
2022-08-14T09:38:07.374Z,27.13
2022-08-14T09:41:19.578Z,27.20
2022-08-14T09:44:54.309Z,27.19
2022-08-14T09:47:40.761Z,27.26
2022-08-14T09:50:29.971Z,27.31
2022-08-14T09:54:19.095Z,27.42
2022-08-14T09:56:51.627Z,26.83
2022-08-14T09:59:28.414Z,26.37
2022-08-14T10:02:01.102Z,26.65
2022-08-14T10:04:34.170Z,27.04
2022-08-14T10:07:05.941Z,27.33
2022-08-14T10:09:35.029Z,26.65
2022-08-14T10:12:05.340Z,26.78
2022-08-14T10:14:36.928Z,26.94
2022-08-14T10:17:08.257Z,27.47
2022-08-14T10:19:47.676Z,26.83
2022-08-14T10:23:12.224Z,26.72
2022-08-14T10:25:16.494Z,27.08
2022-08-14T10:27:50.089Z,27.06
2022-08-14T10:30:34.962Z,27.71
2022-08-14T10:33:02.436Z,27.74
2022-08-14T10:35:47.866Z,28.13
2022-08-14T10:38:35.550Z,28.43
2022-08-14T10:41:16.280Z,28.44
2022-08-14T10:44:09.206Z,28.68
2022-08-14T10:47:41.558Z,28.18
2022-08-14T10:50:01.122Z,28.32
2022-08-14T10:52:34.528Z,27.47
2022-08-14T10:55:19.380Z,27.81
2022-08-14T10:57:54.634Z,28.27
2022-08-14T11:00:29.499Z,28.36
2022-08-14T11:03:09.646Z,28.31
2022-08-14T11:05:48.804Z,27.70
2022-08-14T11:08:34.229Z,28.16
2022-08-14T11:11:05.880Z,28.71
2022-08-14T11:13:39.253Z,28.56
2022-08-14T11:16:07.421Z,28.44
2022-08-14T11:18:40.350Z,29.05
2022-08-14T11:21:09.687Z,29.60
2022-08-14T11:23:41.301Z,30.24
2022-08-14T11:26:16.825Z,30.24
2022-08-14T11:28:48.709Z,30.09
2022-08-14T11:31:25.933Z,30.34
2022-08-14T11:34:03.005Z,31.08
2022-08-14T11:36:56.985Z,30.43
2022-08-14T11:39:33.943Z,30.84
2022-08-14T11:42:55.762Z,30.51
2022-08-14T11:45:11.448Z,29.51
2022-08-14T11:48:12.655Z,29.38
2022-08-14T11:50:37.107Z,29.71
2022-08-14T11:53:07.840Z,30.57
2022-08-14T11:55:39.703Z,31.06
2022-08-14T11:58:15.668Z,30.91
2022-08-14T12:00:59.911Z,30.44
2022-08-14T12:03:51.930Z,29.79
2022-08-14T12:06:29.787Z,29.22
2022-08-14T12:09:08.827Z,28.70
2022-08-14T12:11:46.873Z,28.67
2022-08-14T12:14:34.734Z,29.33
2022-08-14T12:17:12.471Z,30.17
2022-08-14T12:19:51.230Z,30.02
2022-08-14T12:22:43.394Z,30.42
2022-08-14T12:25:29.936Z,30.36
2022-08-14T12:28:27.131Z,30.82
2022-08-14T12:30:58.409Z,31.41
2022-08-14T12:33:33.786Z,31.37
2022-08-14T12:36:07.938Z,31.60
2022-08-14T12:38:43.784Z,31.33
2022-08-14T12:41:24.060Z,30.08
2022-08-14T12:44:06.623Z,30.30
2022-08-14T12:46:41.254Z,30.13
2022-08-14T12:49:17.817Z,30.19
2022-08-14T12:52:02.812Z,30.19
2022-08-14T12:54:32.074Z,30.76
2022-08-14T12:57:19.372Z,30.44
2022-08-14T12:59:49.341Z,31.04
2022-08-14T13:02:26.314Z,30.89
2022-08-14T13:04:56.705Z,31.55
2022-08-14T13:07:32.471Z,30.98
2022-08-14T13:10:45.693Z,30.49
2022-08-14T13:13:15.666Z,30.86
2022-08-14T13:15:57.278Z,29.99
2022-08-14T13:18:29.381Z,29.93
2022-08-14T13:21:02.089Z,30.58
2022-08-14T13:23:36.481Z,32.98
2022-08-14T13:26:06.432Z,34.53
2022-08-14T13:29:00.485Z,33.42
2022-08-14T13:31:30.046Z,32.17
2022-08-14T13:34:00.116Z,30.83
2022-08-14T13:36:51.812Z,30.63
2022-08-14T13:39:24.509Z,30.63
2022-08-14T13:41:55.561Z,29.76
2022-08-14T13:44:27.387Z,30.96
2022-08-14T13:46:55.586Z,33.40
2022-08-14T13:49:24.035Z,34.17
2022-08-14T13:51:58.761Z,35.13
2022-08-14T13:54:32.733Z,34.56
2022-08-14T13:57:03.497Z,35.62
2022-08-14T13:59:37.821Z,35.17
2022-08-14T14:02:08.294Z,34.49
2022-08-14T14:04:49.367Z,34.13
2022-08-14T14:07:21.786Z,33.37
2022-08-14T14:09:56.264Z,33.44
2022-08-14T14:12:38.177Z,34.81
2022-08-14T14:15:19.737Z,37.86
2022-08-14T14:17:59.072Z,37.64
2022-08-14T14:20:35.162Z,37.53
2022-08-14T14:23:11.532Z,38.04
2022-08-14T14:25:51.146Z,38.29
2022-08-14T14:28:32.314Z,38.78
2022-08-14T14:31:06.045Z,35.90
2022-08-14T14:33:48.867Z,38.69
2022-08-14T14:36:26.464Z,37.36
2022-08-14T14:39:01.093Z,35.90
2022-08-14T14:41:43.441Z,34.93
2022-08-14T14:44:15.992Z,37.59
2022-08-14T14:46:49.820Z,35.21
2022-08-14T14:49:21.790Z,36.54
2022-08-14T14:51:51.635Z,38.70
2022-08-14T14:54:30.841Z,36.82
2022-08-14T14:57:02.474Z,35.59
2022-08-14T14:59:34.296Z,33.20
2022-08-14T15:02:07.939Z,33.12
2022-08-14T15:04:43.468Z,33.66
2022-08-14T15:07:12.641Z,32.37
2022-08-14T15:09:41.001Z,32.29
2022-08-14T15:12:34.461Z,32.29
2022-08-14T15:14:58.180Z,32.04
2022-08-14T15:17:40.790Z,31.00
2022-08-14T15:20:17.339Z,30.46
2022-08-14T15:23:12.151Z,30.69
2022-08-14T15:25:53.167Z,29.32
2022-08-14T15:28:22.055Z,28.98
2022-08-14T15:30:57.796Z,29.98
2022-08-14T15:34:13.249Z,29.12
2022-08-14T15:36:35.144Z,29.25
2022-08-14T15:39:04.620Z,29.42
2022-08-14T15:41:33.844Z,29.31
2022-08-14T15:44:24.777Z,29.35
2022-08-14T15:46:56.197Z,29.14
2022-08-14T15:49:34.501Z,29.90
2022-08-14T15:52:06.628Z,29.12
2022-08-14T15:54:35.287Z,28.99
2022-08-14T15:57:09.164Z,28.76
2022-08-14T15:59:57.423Z,28.59
2022-08-14T16:02:28.128Z,29.00
2022-08-14T16:04:56.409Z,28.44
2022-08-14T16:07:27.613Z,28.62
2022-08-14T16:10:25.715Z,28.49
2022-08-14T16:12:54.612Z,29.01
2022-08-14T16:15:22.398Z,29.42
2022-08-14T16:17:52.859Z,29.96
2022-08-14T16:20:42.562Z,29.36
2022-08-14T16:23:12.313Z,29.92
2022-08-14T16:25:45.305Z,30.00
2022-08-14T16:28:13.393Z,29.40
2022-08-14T16:30:54.733Z,29.06
2022-08-14T16:33:56.709Z,28.86
2022-08-14T16:36:31.224Z,28.59
2022-08-14T16:39:02.205Z,28.27
2022-08-14T16:41:30.037Z,28.22
2022-08-14T16:44:21.493Z,28.22
2022-08-14T16:47:04.142Z,28.11
2022-08-14T16:50:03.455Z,27.87
2022-08-14T16:52:43.737Z,27.99
2022-08-14T16:55:13.958Z,28.01
2022-08-14T16:57:58.536Z,27.99
2022-08-14T17:00:43.680Z,27.83
2022-08-14T17:03:13.056Z,28.08
2022-08-14T17:05:46.911Z,27.90
2022-08-14T17:08:42.583Z,27.86
2022-08-14T17:11:11.067Z,27.80
2022-08-14T17:13:58.937Z,27.71
2022-08-14T17:16:38.345Z,27.48
2022-08-14T17:19:13.555Z,27.54
2022-08-14T17:21:42.686Z,27.44
2022-08-14T17:24:56.417Z,27.40
2022-08-14T17:27:08.703Z,27.45
2022-08-14T17:29:44.997Z,27.38
2022-08-14T17:32:44.781Z,27.36
2022-08-14T17:35:57.973Z,27.16
2022-08-14T17:38:39.019Z,27.17
2022-08-14T17:41:22.688Z,27.13
2022-08-14T17:43:55.013Z,27.16
2022-08-14T17:46:49.450Z,27.01
2022-08-14T17:49:28.222Z,27.01
2022-08-14T17:52:16.950Z,26.94
2022-08-14T17:54:52.652Z,26.92
2022-08-14T17:57:40.617Z,26.99
2022-08-14T18:00:14.657Z,26.96
2022-08-14T18:02:50.358Z,26.95
2022-08-14T18:05:23.489Z,26.91
2022-08-14T18:08:33.573Z,26.90
2022-08-14T18:10:56.884Z,26.90
2022-08-14T18:13:49.685Z,26.83
2022-08-14T18:16:20.198Z,26.77
2022-08-14T18:18:51.732Z,26.65
2022-08-14T18:21:40.624Z,26.59
2022-08-14T18:24:20.227Z,26.54
2022-08-14T18:27:22.835Z,26.46
2022-08-14T18:29:56.623Z,26.42
2022-08-14T18:32:30.973Z,26.33
2022-08-14T18:35:56.739Z,26.23
2022-08-14T18:38:45.624Z,26.26
2022-08-14T18:41:37.479Z,26.21
2022-08-14T18:44:10.744Z,26.18
2022-08-14T18:47:15.164Z,26.14
2022-08-14T18:49:57.590Z,26.17
2022-08-14T18:52:34.643Z,26.14
2022-08-14T18:55:22.325Z,26.09
2022-08-14T18:57:58.495Z,26.04
2022-08-14T19:00:32.246Z,26.00
2022-08-14T19:03:06.920Z,25.86
2022-08-14T19:05:47.129Z,25.77
2022-08-14T19:08:27.298Z,25.75
2022-08-14T19:11:04.020Z,25.67
2022-08-14T19:13:48.205Z,25.70
2022-08-14T19:16:26.031Z,25.62
2022-08-14T19:19:06.703Z,25.56
2022-08-14T19:21:38.655Z,25.54
2022-08-14T19:24:27.933Z,25.53
2022-08-14T19:27:23.497Z,25.49
2022-08-14T19:30:20.354Z,25.43
2022-08-14T19:32:55.779Z,25.36
2022-08-14T19:35:48.783Z,25.37
2022-08-14T19:38:47.534Z,25.32
2022-08-14T19:41:34.045Z,25.33
2022-08-14T19:44:20.492Z,25.34
2022-08-14T19:47:04.770Z,25.42
2022-08-14T19:50:30.216Z,25.42
2022-08-14T19:52:40.000Z,25.41
2022-08-14T19:55:19.717Z,25.35
2022-08-14T19:57:58.014Z,25.34
2022-08-14T20:00:28.967Z,25.36
2022-08-14T20:03:11.834Z,25.39
2022-08-14T20:05:43.087Z,25.35
2022-08-14T20:11:00.236Z,25.35
2022-08-14T20:12:00.636Z,25.18
2022-08-14T20:14:29.729Z,25.01
2022-08-14T20:17:05.678Z,24.87
2022-08-14T20:19:38.071Z,24.88
2022-08-14T20:22:36.444Z,24.81
2022-08-14T20:25:22.813Z,24.72
2022-08-14T20:27:59.462Z,24.62
2022-08-14T20:30:35.436Z,24.53
2022-08-14T20:33:11.231Z,24.39
2022-08-14T20:35:49.197Z,24.33
2022-08-14T20:38:33.306Z,24.25
2022-08-14T20:41:08.625Z,24.22
2022-08-14T20:44:00.672Z,24.15
2022-08-14T20:46:38.832Z,24.06
2022-08-14T20:49:19.186Z,24.02
2022-08-14T20:51:59.445Z,23.97
2022-08-14T20:54:34.531Z,23.92
2022-08-14T20:57:17.822Z,23.93
2022-08-14T20:59:53.539Z,23.94
2022-08-14T21:02:34.606Z,23.97
2022-08-14T21:05:16.196Z,24.01
2022-08-14T21:07:50.953Z,24.01
2022-08-14T21:10:33.421Z,23.97
2022-08-14T21:13:26.807Z,24.01
2022-08-14T21:15:57.116Z,24.05
2022-08-14T21:18:47.610Z,23.97
2022-08-14T21:21:23.565Z,23.91
2022-08-14T21:24:10.464Z,23.92
2022-08-14T21:27:12.066Z,23.87
2022-08-14T21:29:41.107Z,23.92
2022-08-14T21:32:34.047Z,23.88
2022-08-14T21:35:08.090Z,23.83
2022-08-14T21:37:47.644Z,23.76
2022-08-14T21:40:40.672Z,23.73
2022-08-14T21:43:17.297Z,23.73
2022-08-14T21:45:56.179Z,23.79
2022-08-14T21:48:31.857Z,23.81
2022-08-14T21:51:54.930Z,23.78
2022-08-14T21:53:58.406Z,23.80
2022-08-14T21:56:39.063Z,23.81
2022-08-14T21:59:17.590Z,23.83
2022-08-14T22:02:00.903Z,23.84
2022-08-14T22:04:40.305Z,23.82
2022-08-14T22:07:17.170Z,23.85
2022-08-14T22:09:54.684Z,23.79
2022-08-14T22:12:57.375Z,23.71
2022-08-14T22:15:17.240Z,23.59
2022-08-14T22:17:52.317Z,23.55
2022-08-14T22:20:28.646Z,23.49
2022-08-14T22:23:04.345Z,23.40
2022-08-14T22:25:40.997Z,23.29
2022-08-14T22:28:19.249Z,23.19
2022-08-14T22:30:55.191Z,23.12
2022-08-14T22:33:30.998Z,23.11
2022-08-14T22:36:25.197Z,23.09
2022-08-14T22:38:54.960Z,23.06
2022-08-14T22:41:29.622Z,23.03
2022-08-14T22:44:15.036Z,23.03
2022-08-14T22:46:45.317Z,23.01
2022-08-14T22:50:31.509Z,23.04
2022-08-14T22:52:31.608Z,23.22
2022-08-14T22:54:58.804Z,23.39
2022-08-14T22:57:41.768Z,23.53
2022-08-14T23:00:25.073Z,23.54
2022-08-14T23:02:58.205Z,23.57
2022-08-14T23:05:38.867Z,23.56
2022-08-14T23:09:00.258Z,23.62
2022-08-14T23:10:59.634Z,23.55
2022-08-14T23:13:26.961Z,23.42
2022-08-14T23:15:59.961Z,23.30
2022-08-14T23:18:29.637Z,23.27
2022-08-14T23:20:57.600Z,23.17
2022-08-14T23:23:24.986Z,23.10
2022-08-14T23:25:58.746Z,23.06
2022-08-14T23:28:34.589Z,23.09
2022-08-14T23:31:34.224Z,22.99
2022-08-14T23:34:20.995Z,22.89
2022-08-14T23:36:55.932Z,22.80
2022-08-14T23:39:31.498Z,22.69
2022-08-14T23:42:08.842Z,22.61
2022-08-14T23:44:38.083Z,22.57
2022-08-14T23:47:11.880Z,22.55
2022-08-14T23:50:03.409Z,22.51
2022-08-14T23:53:06.856Z,22.46
2022-08-14T23:55:33.404Z,22.43
2022-08-14T23:58:01.102Z,22.36
